DLH1P EDDH-PHNL
Flight info
| Callsign | DLH1P |
|---|---|
| Flight time | N/A |
| Altitude | 31000 |
| Route | LUGEG3G/33 LUGEG M852 ALS P615 AAL/N0473F300 P622 IPMOD/N0478F320 P622 VIG DCT 68N002E/M083F320 75N007W 78N015W/M082F340 80N024W 82N40W/N0481F340 83N79W/N0477F360 82N101W 81N111W 79N122W 76N132W DCT VOLOB DCT FYU/N0471F370 J167 DONEL DCT DEALS DCT ZAXUM DCT GRIZZ/N0473F380 DCT 52N152W/N0469F390 44N154W 34N156W DCT ZIGIE |
| Aircraft | A343/H-SDE2E3FGHIJ4J5M1RWXY/LB1D1 |
Departure
| Time | 2026-04-24 19:21 |
|---|---|
| Airport | Hamburg Helmut Schmidt Airport (EDDH) |
Arrival
| Time | N/A |
|---|---|
| Airport | Daniel K. Inouye International Airport (PHNL) |
| Time | Latitude | Longitude | Altitude | Speed | Heading |
|---|---|---|---|---|---|
| 2026-04-24 18:54 | 53.62944 | 9.99340 | 45 ft | 0 kts | 334° |
| 2026-04-24 18:58 | 53.62945 | 9.99339 | 45 ft | 2 kts | 334° |
| 2026-04-24 18:58 | 53.62980 | 9.99320 | 47 ft | 8 kts | 343° |
| 2026-04-24 18:59 | 53.63022 | 9.99307 | 48 ft | 0 kts | 356° |
| 2026-04-24 19:00 | 53.63041 | 9.99310 | 48 ft | 7 kts | 10° |
| 2026-04-24 19:01 | 53.63068 | 9.99338 | 47 ft | 0 kts | 42° |
| 2026-04-24 19:01 | 53.63069 | 9.99339 | 47 ft | 1 kts | 42° |
| 2026-04-24 19:01 | 53.63098 | 9.99401 | 49 ft | 12 kts | 53° |
| 2026-04-24 19:02 | 53.63140 | 9.99495 | 49 ft | 18 kts | 53° |
| 2026-04-24 19:02 | 53.63223 | 9.99682 | 48 ft | 0 kts | 64° |
| 2026-04-24 19:04 | 53.63226 | 9.99737 | 48 ft | 10 kts | 101° |
| 2026-04-24 19:04 | 53.63171 | 9.99810 | 48 ft | 10 kts | 151° |
| 2026-04-24 19:04 | 53.63114 | 9.99860 | 48 ft | 9 kts | 153° |
| 2026-04-24 19:04 | 53.63062 | 9.99904 | 49 ft | 8 kts | 153° |
| 2026-04-24 19:05 | 53.63018 | 9.99943 | 49 ft | 7 kts | 153° |
| 2026-04-24 19:05 | 53.62986 | 9.99970 | 49 ft | 0 kts | 153° |
| 2026-04-24 19:08 | 53.62982 | 9.99973 | 49 ft | 0 kts | 153° |
| 2026-04-24 19:10 | 53.62963 | 9.99989 | 49 ft | 7 kts | 153° |
| 2026-04-24 19:10 | 53.62900 | 10.00037 | 49 ft | 10 kts | 158° |
| 2026-04-24 19:11 | 53.62840 | 10.00080 | 49 ft | 9 kts | 153° |
| 2026-04-24 19:11 | 53.62787 | 10.00126 | 50 ft | 9 kts | 152° |
| 2026-04-24 19:11 | 53.62720 | 10.00185 | 50 ft | 12 kts | 153° |
| 2026-04-24 19:11 | 53.62652 | 10.00244 | 50 ft | 10 kts | 153° |
| 2026-04-24 19:12 | 53.62600 | 10.00258 | 50 ft | 5 kts | 204° |
| 2026-04-24 19:12 | 53.62580 | 10.00223 | 47 ft | 3 kts | 236° |
| 2026-04-24 19:12 | 53.62575 | 10.00211 | 50 ft | 0 kts | 238° |
| 2026-04-24 19:16 | 53.62569 | 10.00195 | 50 ft | 5 kts | 239° |
| 2026-04-24 19:17 | 53.62545 | 10.00112 | 47 ft | 8 kts | 246° |
| 2026-04-24 19:17 | 53.62541 | 10.00041 | 47 ft | 5 kts | 288° |
| 2026-04-24 19:17 | 53.62557 | 10.00018 | 45 ft | 0 kts | 327° |
| 2026-04-24 19:19 | 53.62564 | 10.00011 | 46 ft | 5 kts | 328° |
| 2026-04-24 19:20 | 53.62676 | 9.99912 | 48 ft | 42 kts | 333° |
| 2026-04-24 19:20 | 53.63101 | 9.99545 | 49 ft | 94 kts | 332° |
| 2026-04-24 19:20 | 53.63828 | 9.98914 | 45 ft | 139 kts | 333° |
| 2026-04-24 19:20 | 53.64790 | 9.98049 | 122 ft | 168 kts | 329° |
| 2026-04-24 19:21 | 53.65835 | 9.97194 | 697 ft | 166 kts | 329° |
| 2026-04-24 19:21 | 53.66877 | 9.96343 | 1315 ft | 167 kts | 331° |
| 2026-04-24 19:21 | 53.67940 | 9.95436 | 1598 ft | 176 kts | 330° |
| 2026-04-24 19:21 | 53.69144 | 9.94738 | 1830 ft | 192 kts | 348° |
| 2026-04-24 19:22 | 53.70045 | 9.94628 | 2084 ft | 198 kts | 355° |
| 2026-04-24 19:22 | 53.71899 | 9.94677 | 2637 ft | 209 kts | 2° |
| 2026-04-24 19:22 | 53.73344 | 9.95448 | 2883 ft | 233 kts | 29° |
| 2026-04-24 19:22 | 53.74454 | 9.97618 | 3165 ft | 259 kts | 56° |
| 2026-04-24 19:23 | 53.75276 | 10.00433 | 3514 ft | 273 kts | 59° |
| 2026-04-24 19:23 | 53.76090 | 10.03392 | 4000 ft | 281 kts | 59° |
| 2026-04-24 19:23 | 53.76932 | 10.06409 | 4522 ft | 286 kts | 59° |
| 2026-04-24 19:23 | 53.77803 | 10.09494 | 4915 ft | 294 kts | 59° |
| 2026-04-24 19:24 | 53.78676 | 10.12574 | 5073 ft | 295 kts | 59° |
| 2026-04-24 19:24 | 53.79571 | 10.15706 | 5418 ft | 297 kts | 59° |
| 2026-04-24 19:24 | 53.80473 | 10.18856 | 6029 ft | 298 kts | 59° |
| 2026-04-24 19:24 | 53.81381 | 10.22028 | 6604 ft | 300 kts | 59° |
| 2026-04-24 19:25 | 53.82300 | 10.25236 | 7083 ft | 306 kts | 59° |
| 2026-04-24 19:25 | 53.83229 | 10.28484 | 7615 ft | 307 kts | 59° |
| 2026-04-24 19:25 | 53.84163 | 10.31755 | 8132 ft | 310 kts | 59° |
| 2026-04-24 19:25 | 53.85103 | 10.35052 | 8644 ft | 312 kts | 59° |
| 2026-04-24 19:26 | 53.86051 | 10.38379 | 9170 ft | 315 kts | 59° |
| 2026-04-24 19:26 | 53.87008 | 10.41745 | 9673 ft | 318 kts | 59° |
| 2026-04-24 19:26 | 53.87972 | 10.45141 | 10019 ft | 321 kts | 58° |
| 2026-04-24 19:26 | 53.88941 | 10.48558 | 10106 ft | 322 kts | 59° |
| 2026-04-24 19:27 | 53.89898 | 10.51943 | 10115 ft | 322 kts | 59° |
| 2026-04-24 19:27 | 53.90909 | 10.55324 | 10168 ft | 320 kts | 53° |
| 2026-04-24 19:27 | 53.92255 | 10.58318 | 10279 ft | 318 kts | 38° |
| 2026-04-24 19:27 | 53.93998 | 10.60669 | 10477 ft | 325 kts | 31° |
| 2026-04-24 19:28 | 53.95692 | 10.63356 | 10654 ft | 345 kts | 47° |
| 2026-04-24 19:28 | 53.96992 | 10.66903 | 10854 ft | 360 kts | 56° |
| 2026-04-24 19:28 | 53.98161 | 10.70746 | 11040 ft | 372 kts | 59° |
| 2026-04-24 19:28 | 53.99308 | 10.74738 | 11356 ft | 379 kts | 59° |
| 2026-04-24 19:29 | 54.01628 | 10.82844 | 12135 ft | 387 kts | 59° |
| 2026-04-24 19:29 | 54.02810 | 10.86980 | 12541 ft | 391 kts | 59° |
| 2026-04-24 19:29 | 54.04002 | 10.91150 | 12968 ft | 394 kts | 59° |
| 2026-04-24 19:30 | 54.05221 | 10.95345 | 13402 ft | 396 kts | 57° |
| 2026-04-24 19:30 | 54.06743 | 10.99221 | 13812 ft | 392 kts | 44° |
| 2026-04-24 19:30 | 54.08748 | 11.02292 | 14187 ft | 385 kts | 27° |
| 2026-04-24 19:30 | 54.11166 | 11.04144 | 14566 ft | 378 kts | 9° |
| 2026-04-24 19:31 | 54.13751 | 11.04541 | 14942 ft | 372 kts | 351° |
| 2026-04-24 19:31 | 54.16248 | 11.03484 | 15316 ft | 369 kts | 333° |
| 2026-04-24 19:31 | 54.18407 | 11.01140 | 15696 ft | 369 kts | 320° |
| 2026-04-24 19:31 | 54.20206 | 10.98004 | 16049 ft | 371 kts | 304° |
| 2026-04-24 19:32 | 54.21772 | 10.94492 | 16407 ft | 374 kts | 316° |
| 2026-04-24 19:32 | 54.23873 | 10.91949 | 16794 ft | 379 kts | 332° |
| 2026-04-24 19:32 | 54.26366 | 10.90416 | 17196 ft | 384 kts | 342° |
| 2026-04-24 19:32 | 54.28987 | 10.89422 | 17692 ft | 386 kts | 346° |
| 2026-04-24 19:33 | 54.31652 | 10.88654 | 18064 ft | 390 kts | 348° |
| 2026-04-24 19:33 | 54.34350 | 10.87964 | 18420 ft | 393 kts | 348° |
| 2026-04-24 19:33 | 54.37070 | 10.87269 | 18738 ft | 396 kts | 348° |
| 2026-04-24 19:33 | 54.39797 | 10.86541 | 19070 ft | 398 kts | 347° |
| 2026-04-24 19:34 | 54.42537 | 10.85771 | 19407 ft | 400 kts | 347° |
| 2026-04-24 19:34 | 54.45286 | 10.84968 | 19739 ft | 402 kts | 347° |
| 2026-04-24 19:34 | 54.48053 | 10.84141 | 20048 ft | 404 kts | 347° |
| 2026-04-24 19:34 | 54.50831 | 10.83302 | 20371 ft | 406 kts | 347° |
| 2026-04-24 19:35 | 54.53620 | 10.82455 | 20747 ft | 408 kts | 347° |
| 2026-04-24 19:35 | 54.56417 | 10.81606 | 21159 ft | 408 kts | 347° |
| 2026-04-24 19:35 | 54.59182 | 10.80767 | 21452 ft | 410 kts | 347° |
| 2026-04-24 19:35 | 54.62006 | 10.79908 | 21668 ft | 414 kts | 347° |
| 2026-04-24 19:36 | 54.64864 | 10.79039 | 21912 ft | 418 kts | 347° |
| 2026-04-24 19:36 | 54.67735 | 10.78166 | 22235 ft | 420 kts | 347° |
| 2026-04-24 19:36 | 54.70622 | 10.77288 | 22531 ft | 421 kts | 347° |
| 2026-04-24 19:36 | 54.73543 | 10.76399 | 22825 ft | 424 kts | 347° |
| 2026-04-24 19:37 | 54.76428 | 10.75519 | 23098 ft | 426 kts | 348° |
| 2026-04-24 19:37 | 54.79350 | 10.74626 | 23394 ft | 428 kts | 347° |
| 2026-04-24 19:37 | 54.82283 | 10.73729 | 23808 ft | 426 kts | 347° |
| 2026-04-24 19:37 | 54.85205 | 10.72835 | 24065 ft | 427 kts | 347° |
| 2026-04-24 19:38 | 54.88104 | 10.71944 | 24267 ft | 429 kts | 347° |
| 2026-04-24 19:38 | 54.91051 | 10.71037 | 24478 ft | 431 kts | 347° |
| 2026-04-24 19:38 | 54.94015 | 10.70124 | 24711 ft | 433 kts | 347° |
| 2026-04-24 19:38 | 54.96017 | 10.69507 | 24859 ft | 434 kts | 347° |
| 2026-04-24 19:39 | 54.99004 | 10.68584 | 25077 ft | 435 kts | 347° |
| 2026-04-24 19:39 | 55.01953 | 10.67673 | 25305 ft | 437 kts | 347° |
| 2026-04-24 19:39 | 55.04953 | 10.66744 | 25504 ft | 438 kts | 347° |
| 2026-04-24 19:39 | 55.07962 | 10.65811 | 25785 ft | 439 kts | 347° |
| 2026-04-24 19:40 | 55.10965 | 10.64879 | 26030 ft | 439 kts | 347° |
| 2026-04-24 19:40 | 55.13988 | 10.63939 | 26205 ft | 441 kts | 347° |
| 2026-04-24 19:40 | 55.17017 | 10.62995 | 26405 ft | 443 kts | 347° |
| 2026-04-24 19:40 | 55.20056 | 10.62047 | 26599 ft | 444 kts | 347° |
| 2026-04-24 19:41 | 55.23110 | 10.61092 | 26801 ft | 446 kts | 347° |
| 2026-04-24 19:41 | 55.26178 | 10.60132 | 26990 ft | 447 kts | 347° |
| 2026-04-24 19:41 | 55.29242 | 10.59171 | 27175 ft | 449 kts | 347° |
| 2026-04-24 19:41 | 55.32325 | 10.58203 | 27367 ft | 450 kts | 347° |
| 2026-04-24 19:42 | 55.35369 | 10.57247 | 27669 ft | 449 kts | 346° |
| 2026-04-24 19:42 | 55.38440 | 10.56281 | 27938 ft | 449 kts | 346° |
| 2026-04-24 19:42 | 55.41522 | 10.55309 | 28087 ft | 450 kts | 346° |
| 2026-04-24 19:42 | 55.44611 | 10.54332 | 28242 ft | 452 kts | 346° |
| 2026-04-24 19:43 | 55.47720 | 10.53347 | 28408 ft | 453 kts | 346° |
| 2026-04-24 19:43 | 55.50828 | 10.52361 | 28581 ft | 455 kts | 346° |
| 2026-04-24 19:43 | 55.53950 | 10.51370 | 28758 ft | 455 kts | 346° |
| 2026-04-24 19:43 | 55.57066 | 10.50380 | 28973 ft | 455 kts | 346° |
| 2026-04-24 19:44 | 55.60177 | 10.49390 | 29205 ft | 454 kts | 346° |
| 2026-04-24 19:44 | 55.63287 | 10.48399 | 29427 ft | 454 kts | 346° |
| 2026-04-24 19:44 | 55.66401 | 10.47405 | 29635 ft | 454 kts | 346° |
| 2026-04-24 19:44 | 55.69466 | 10.46424 | 29847 ft | 453 kts | 346° |
| 2026-04-24 19:45 | 55.72568 | 10.45430 | 30058 ft | 453 kts | 346° |
| 2026-04-24 19:45 | 55.75666 | 10.44435 | 30237 ft | 453 kts | 346° |
| 2026-04-24 19:45 | 55.78771 | 10.43436 | 30404 ft | 452 kts | 346° |
| 2026-04-24 19:45 | 55.81870 | 10.42438 | 30567 ft | 452 kts | 346° |
| 2026-04-24 19:46 | 55.84972 | 10.41437 | 30730 ft | 452 kts | 346° |
| 2026-04-24 19:46 | 55.88056 | 10.40441 | 30956 ft | 450 kts | 346° |
| 2026-04-24 19:46 | 55.91082 | 10.39465 | 31315 ft | 445 kts | 346° |
| 2026-04-24 19:46 | 55.94123 | 10.38480 | 31474 ft | 445 kts | 346° |
| 2026-04-24 19:47 | 55.97177 | 10.37487 | 31573 ft | 445 kts | 346° |
| 2026-04-24 19:47 | 56.00235 | 10.36490 | 31693 ft | 445 kts | 346° |
| 2026-04-24 19:47 | 56.03284 | 10.35496 | 31827 ft | 445 kts | 346° |
| 2026-04-24 19:47 | 56.06334 | 10.34500 | 31959 ft | 445 kts | 346° |
| 2026-04-24 19:48 | 56.09378 | 10.33504 | 32001 ft | 444 kts | 346° |
| 2026-04-24 19:48 | 56.18391 | 10.30555 | 32009 ft | 437 kts | 345° |
| 2026-04-24 19:49 | 56.30348 | 10.26609 | 32004 ft | 436 kts | 345° |